createdAt,value
2024-03-05T00:01:10.372Z,72.62
2024-03-05T00:03:37.013Z,71.90
2024-03-05T00:06:03.746Z,67.69
2024-03-05T00:08:30.319Z,67.66
2024-03-05T00:10:57.122Z,68.60
2024-03-05T00:13:25.872Z,67.82
2024-03-05T00:15:53.423Z,70.23
2024-03-05T00:18:22.136Z,75.26
2024-03-05T00:20:48.823Z,76.23
2024-03-05T00:23:15.453Z,76.19
2024-03-05T00:25:42.150Z,74.83
2024-03-05T00:28:08.865Z,69.13
2024-03-05T00:30:35.466Z,67.98
2024-03-05T00:33:02.153Z,67.27
2024-03-05T00:35:29.402Z,75.34
2024-03-05T00:37:56.039Z,73.25
2024-03-05T00:40:22.712Z,69.97
2024-03-05T00:42:49.370Z,69.61
2024-03-05T00:45:18.593Z,68.05
2024-03-05T00:47:45.301Z,71.67
2024-03-05T00:50:14.537Z,73.32
2024-03-05T00:52:41.432Z,70.27
2024-03-05T00:55:08.832Z,71.39
2024-03-05T00:57:36.194Z,69.25
2024-03-05T01:00:02.803Z,68.10
2024-03-05T01:02:29.584Z,71.19
2024-03-05T01:04:56.321Z,70.92
2024-03-05T01:07:23.327Z,71.51
2024-03-05T01:09:50.538Z,69.94
2024-03-05T01:12:17.728Z,68.30
2024-03-05T01:14:45.895Z,66.91
2024-03-05T01:17:13.928Z,67.68
2024-03-05T01:19:40.789Z,68.62
2024-03-05T01:22:07.439Z,69.29
2024-03-05T01:24:34.020Z,67.74
2024-03-05T01:27:00.694Z,73.24
2024-03-05T01:29:27.353Z,70.07
2024-03-05T01:31:58.119Z,69.65
2024-03-05T01:34:25.065Z,65.99
2024-03-05T01:36:51.950Z,67.52
2024-03-05T01:39:22.568Z,67.27
2024-03-05T01:41:49.187Z,69.02
2024-03-05T01:44:16.461Z,69.07
2024-03-05T01:46:43.410Z,70.29
2024-03-05T01:49:10.577Z,69.49
2024-03-05T01:51:38.839Z,67.87
2024-03-05T01:54:07.274Z,69.48
2024-03-05T01:56:34.051Z,71.14
2024-03-05T01:59:01.332Z,69.25
2024-03-05T02:01:28.313Z,73.76
2024-03-05T02:03:55.232Z,68.55
2024-03-05T02:06:22.945Z,71.09
2024-03-05T02:08:49.751Z,73.31
2024-03-05T02:11:17.353Z,70.87
2024-03-05T02:13:44.421Z,68.21
2024-03-05T02:16:11.182Z,70.32
2024-03-05T02:18:37.811Z,68.16
2024-03-05T02:21:04.609Z,69.62
2024-03-05T02:23:31.283Z,77.10
2024-03-05T02:25:58.240Z,74.69
2024-03-05T02:28:24.981Z,75.07
2024-03-05T02:30:52.000Z,75.47
2024-03-05T02:33:20.224Z,70.25
2024-03-05T02:35:47.683Z,73.79
2024-03-05T02:38:14.873Z,71.48
2024-03-05T02:40:41.572Z,68.05
2024-03-05T02:43:08.272Z,67.82
2024-03-05T02:45:35.021Z,68.09
2024-03-05T02:48:05.068Z,69.67
2024-03-05T02:50:31.906Z,71.57
2024-03-05T02:52:58.794Z,77.56
2024-03-05T02:55:25.532Z,75.55
2024-03-05T02:57:52.287Z,79.57
2024-03-05T03:00:21.951Z,76.79
2024-03-05T03:02:52.225Z,70.91
2024-03-05T03:05:22.420Z,70.23
2024-03-05T03:07:49.318Z,77.01
2024-03-05T03:10:16.280Z,73.47
2024-03-05T03:12:43.472Z,71.17
2024-03-05T03:15:10.220Z,72.25
2024-03-05T03:17:39.487Z,73.41
2024-03-05T03:20:08.952Z,75.89
2024-03-05T03:22:36.161Z,75.97
2024-03-05T03:25:02.884Z,73.78
2024-03-05T03:27:29.729Z,73.51
2024-03-05T03:29:56.391Z,74.86
2024-03-05T03:32:23.008Z,71.85
2024-03-05T03:34:49.709Z,70.72
2024-03-05T03:37:16.444Z,69.50
2024-03-05T03:39:43.751Z,70.94
2024-03-05T03:42:13.301Z,70.78
2024-03-05T03:44:40.512Z,72.22
2024-03-05T03:47:08.558Z,76.02
2024-03-05T03:49:35.237Z,81.00
2024-03-05T03:52:01.893Z,81.35
2024-03-05T03:54:28.520Z,77.50
2024-03-05T03:56:55.607Z,76.25
2024-03-05T03:59:22.288Z,74.55
2024-03-05T04:01:49.766Z,73.15
2024-03-05T04:04:16.916Z,70.13
2024-03-05T04:06:43.894Z,75.79
2024-03-05T04:09:10.638Z,77.17
2024-03-05T04:11:40.236Z,74.11
2024-03-05T04:14:06.978Z,70.71
2024-03-05T04:16:33.775Z,73.50
2024-03-05T04:19:00.422Z,77.29
2024-03-05T04:21:27.375Z,74.17
2024-03-05T04:23:54.016Z,71.13
2024-03-05T04:26:28.105Z,73.98
2024-03-05T04:28:56.254Z,71.68
2024-03-05T04:31:37.537Z,71.75
2024-03-05T04:34:08.722Z,71.87
2024-03-05T04:36:38.948Z,68.08
2024-03-05T04:39:07.621Z,69.03
2024-03-05T04:41:34.357Z,70.53
2024-03-05T04:44:01.228Z,73.29
2024-03-05T04:46:28.005Z,75.33
2024-03-05T04:48:55.539Z,73.73
2024-03-05T04:51:22.241Z,70.07
2024-03-05T04:53:49.136Z,69.99
2024-03-05T04:56:15.759Z,70.21
2024-03-05T04:58:42.479Z,75.63
2024-03-05T05:01:09.530Z,70.50
2024-03-05T05:03:36.197Z,68.75
2024-03-05T05:06:02.891Z,67.71
2024-03-05T05:08:29.554Z,72.37
2024-03-05T05:10:56.700Z,73.68
2024-03-05T05:13:23.492Z,72.29
2024-03-05T05:15:50.302Z,70.72
2024-03-05T05:18:17.062Z,68.56
2024-03-05T05:20:44.357Z,75.24
2024-03-05T05:23:11.049Z,69.46
2024-03-05T05:25:38.650Z,73.70
2024-03-05T05:28:06.611Z,74.76
2024-03-05T05:30:33.896Z,71.44
2024-03-05T05:33:00.667Z,70.09
2024-03-05T05:35:27.388Z,73.24
2024-03-05T05:37:54.145Z,77.05
2024-03-05T05:40:21.962Z,75.44
2024-03-05T05:42:49.722Z,72.78
2024-03-05T05:45:16.358Z,78.83
2024-03-05T05:47:50.379Z,77.09
2024-03-05T05:50:20.359Z,77.91
2024-03-05T05:52:48.492Z,76.15
2024-03-05T05:55:16.693Z,74.84
2024-03-05T05:57:47.546Z,75.76
2024-03-05T06:00:24.337Z,76.08
2024-03-05T06:02:54.536Z,72.10
2024-03-05T06:05:24.120Z,70.09
2024-03-05T06:07:51.318Z,75.25
2024-03-05T06:10:18.567Z,73.52
2024-03-05T06:12:46.527Z,73.50
2024-03-05T06:15:13.432Z,72.75
2024-03-05T06:17:40.960Z,69.05
2024-03-05T06:20:12.972Z,68.86
2024-03-05T06:22:40.708Z,67.81
2024-03-05T06:25:09.307Z,67.84
2024-03-05T06:27:39.448Z,68.61
2024-03-05T06:30:09.658Z,69.47
2024-03-05T06:32:42.613Z,69.39
2024-03-05T06:35:12.200Z,69.54
2024-03-05T06:37:48.248Z,67.59
2024-03-05T06:40:17.626Z,70.64
2024-03-05T06:42:53.185Z,68.69
2024-03-05T06:45:26.286Z,74.94
2024-03-05T06:48:11.582Z,75.21
2024-03-05T06:50:43.907Z,72.06
2024-03-05T06:53:30.515Z,69.89
2024-03-05T06:56:16.252Z,71.12
2024-03-05T06:58:43.985Z,71.73
2024-03-05T07:01:10.782Z,75.56
2024-03-05T07:03:38.558Z,71.70
2024-03-05T07:06:08.382Z,70.42
2024-03-05T07:08:41.420Z,74.12
2024-03-05T07:11:12.071Z,73.19
2024-03-05T07:13:44.766Z,69.63
2024-03-05T07:16:18.540Z,71.33
2024-03-05T07:18:48.694Z,70.73
2024-03-05T07:21:16.088Z,70.80
2024-03-05T07:23:42.700Z,72.72
2024-03-05T07:26:09.518Z,68.84
2024-03-05T07:28:38.661Z,67.08
2024-03-05T07:31:05.300Z,66.95
2024-03-05T07:33:32.489Z,71.24
2024-03-05T07:35:59.157Z,73.39
2024-03-05T07:38:25.890Z,71.72
2024-03-05T07:40:52.708Z,71.20
2024-03-05T07:43:19.649Z,70.39
2024-03-05T07:45:48.817Z,76.73
2024-03-05T07:48:17.233Z,77.80
2024-03-05T07:50:44.667Z,78.22
2024-03-05T07:53:11.462Z,75.25
2024-03-05T07:55:46.375Z,76.75
2024-03-05T07:58:14.489Z,79.19
2024-03-05T08:00:41.949Z,86.19
2024-03-05T08:03:08.781Z,83.39
2024-03-05T08:05:36.239Z,78.33
2024-03-05T08:08:03.730Z,79.42
2024-03-05T08:10:30.677Z,81.90
2024-03-05T08:12:57.390Z,86.06
2024-03-05T08:15:27.656Z,84.91
2024-03-05T08:17:55.204Z,79.84
2024-03-05T08:20:26.666Z,77.36
2024-03-05T08:22:54.262Z,77.25
2024-03-05T08:25:21.301Z,79.42
2024-03-05T08:27:48.698Z,78.81
2024-03-05T08:30:20.993Z,76.32
2024-03-05T08:32:51.073Z,77.09
2024-03-05T08:35:17.818Z,79.93
2024-03-05T08:37:46.778Z,79.70
2024-03-05T08:40:16.104Z,81.12
2024-03-05T08:42:43.703Z,78.35
2024-03-05T08:45:11.285Z,74.22
2024-03-05T08:47:38.277Z,83.23
2024-03-05T08:50:05.756Z,77.93
2024-03-05T08:52:32.584Z,71.30
2024-03-05T08:54:59.394Z,76.70
2024-03-05T08:57:27.353Z,74.85
2024-03-05T08:59:54.345Z,85.26
2024-03-05T09:02:21.137Z,77.88
2024-03-05T09:04:49.035Z,78.35
2024-03-05T09:07:16.095Z,83.99
2024-03-05T09:09:43.221Z,80.72
2024-03-05T09:12:10.130Z,86.54
2024-03-05T09:14:37.101Z,79.31
2024-03-05T09:17:04.284Z,78.39
2024-03-05T09:19:30.997Z,81.62
2024-03-05T09:21:57.661Z,75.71
2024-03-05T09:24:24.453Z,76.05
2024-03-05T09:26:51.353Z,74.93
2024-03-05T09:29:18.081Z,77.82
2024-03-05T09:31:44.836Z,76.15
2024-03-05T09:34:11.606Z,78.82
2024-03-05T09:36:39.398Z,75.08
2024-03-05T09:39:10.717Z,75.01
2024-03-05T09:41:41.494Z,75.19
2024-03-05T09:44:09.401Z,78.47
2024-03-05T09:46:40.628Z,77.41
2024-03-05T09:49:17.941Z,77.72
2024-03-05T09:51:49.546Z,73.12
2024-03-05T09:54:16.260Z,76.30
2024-03-05T09:56:43.742Z,78.72
2024-03-05T09:59:12.060Z,77.07
2024-03-05T10:01:38.912Z,74.71
2024-03-05T10:04:06.361Z,70.23
2024-03-05T10:06:33.209Z,70.45
2024-03-05T10:08:59.866Z,72.97
2024-03-05T10:11:26.713Z,71.44
2024-03-05T10:13:53.484Z,70.44
2024-03-05T10:16:21.471Z,72.06
2024-03-05T10:18:48.398Z,74.73
2024-03-05T10:21:19.182Z,67.16
2024-03-05T10:23:47.623Z,71.84
2024-03-05T10:26:18.740Z,69.73
2024-03-05T10:28:46.855Z,73.81
2024-03-05T10:31:23.349Z,74.22
2024-03-05T10:33:51.886Z,71.62
2024-03-05T10:36:29.839Z,72.41
2024-03-05T10:38:56.689Z,76.23
2024-03-05T10:41:39.251Z,74.51
2024-03-05T10:44:14.716Z,72.16
2024-03-05T10:46:44.341Z,72.46
2024-03-05T10:49:12.547Z,69.77
2024-03-05T10:51:40.047Z,67.96
2024-03-05T10:54:07.095Z,67.15
2024-03-05T10:56:39.982Z,67.63
2024-03-05T10:59:17.254Z,67.25
2024-03-05T11:01:46.091Z,66.11
2024-03-05T11:04:14.596Z,65.50
2024-03-05T11:06:41.799Z,63.76
2024-03-05T11:09:11.779Z,69.58
2024-03-05T11:11:40.883Z,66.62
2024-03-05T11:14:08.324Z,64.78
2024-03-05T11:16:37.741Z,65.16
2024-03-05T11:19:11.340Z,67.54
2024-03-05T11:21:39.902Z,66.03
2024-03-05T11:24:07.624Z,63.86
2024-03-05T11:26:34.897Z,65.39
2024-03-05T11:29:03.859Z,63.24
2024-03-05T11:31:30.628Z,62.95
2024-03-05T11:34:03.566Z,61.21
2024-03-05T11:36:37.726Z,60.20
2024-03-05T11:39:08.615Z,64.09
2024-03-05T11:41:38.972Z,61.74
2024-03-05T11:44:05.947Z,60.24
2024-03-05T11:46:49.856Z,59.29
2024-03-05T11:49:17.766Z,59.68
2024-03-05T11:51:45.732Z,57.80
2024-03-05T11:54:16.278Z,59.86
2024-03-05T11:56:44.480Z,57.49
2024-03-05T11:59:11.736Z,58.21
2024-03-05T12:01:40.093Z,58.89
2024-03-05T12:04:08.937Z,57.00
2024-03-05T12:06:36.019Z,58.33
2024-03-05T12:09:21.738Z,58.25
2024-03-05T12:12:04.633Z,60.48
2024-03-05T12:14:36.039Z,61.00
2024-03-05T12:17:13.734Z,59.47
2024-03-05T12:19:41.521Z,60.45
2024-03-05T12:22:08.372Z,58.52
2024-03-05T12:24:36.131Z,59.21
2024-03-05T12:27:03.757Z,60.24
2024-03-05T12:29:33.362Z,61.37
2024-03-05T12:32:04.849Z,59.25
2024-03-05T12:34:31.932Z,63.28
2024-03-05T12:36:58.652Z,60.09
2024-03-05T12:39:25.881Z,58.38
2024-03-05T12:42:18.567Z,57.90
2024-03-05T12:44:45.298Z,57.49
2024-03-05T12:47:15.120Z,55.66
2024-03-05T12:49:51.304Z,55.20
2024-03-05T12:52:22.640Z,54.43
2024-03-05T12:55:11.115Z,55.10
2024-03-05T12:57:38.041Z,55.74
2024-03-05T13:00:11.316Z,55.55
2024-03-05T13:02:39.270Z,57.88
2024-03-05T13:05:06.502Z,54.77
2024-03-05T13:07:34.776Z,56.18
2024-03-05T13:10:01.644Z,58.38
2024-03-05T13:12:30.374Z,57.06
2024-03-05T13:14:56.976Z,55.90
2024-03-05T13:17:23.705Z,56.31
2024-03-05T13:19:50.406Z,55.96
2024-03-05T13:22:17.033Z,52.79
2024-03-05T13:24:44.437Z,55.17
2024-03-05T13:27:11.500Z,52.74
2024-03-05T13:29:38.777Z,54.54
2024-03-05T13:32:06.007Z,55.50
2024-03-05T13:34:32.830Z,53.62
2024-03-05T13:37:00.082Z,54.04
2024-03-05T13:39:26.905Z,53.40
2024-03-05T13:41:54.563Z,52.01
2024-03-05T13:44:23.477Z,53.66
2024-03-05T13:46:51.555Z,50.87
2024-03-05T13:49:20.341Z,52.87
2024-03-05T13:51:47.029Z,52.55
2024-03-05T13:54:14.001Z,52.67
2024-03-05T13:56:42.209Z,51.95
2024-03-05T13:59:11.629Z,52.06
2024-03-05T14:01:43.036Z,51.20
2024-03-05T14:04:12.607Z,51.30
2024-03-05T14:06:39.775Z,52.12
2024-03-05T14:09:10.288Z,51.67
2024-03-05T14:11:37.912Z,53.01
2024-03-05T14:14:05.149Z,53.75
2024-03-05T14:16:32.526Z,53.76
2024-03-05T14:19:00.043Z,51.01
2024-03-05T14:21:30.802Z,52.64
2024-03-05T14:23:58.655Z,52.85
2024-03-05T14:26:25.612Z,52.77
2024-03-05T14:28:52.530Z,52.71
2024-03-05T14:31:19.554Z,54.03
2024-03-05T14:33:46.671Z,54.30
2024-03-05T14:36:15.212Z,53.46
2024-03-05T14:38:43.907Z,53.24
2024-03-05T14:41:11.357Z,52.17
2024-03-05T14:43:38.382Z,51.64
2024-03-05T14:46:06.706Z,54.13
2024-03-05T14:48:34.310Z,52.77
2024-03-05T14:51:01.667Z,51.82
2024-03-05T14:53:28.512Z,53.16
2024-03-05T14:55:55.448Z,53.52
2024-03-05T14:58:22.412Z,52.53
2024-03-05T15:00:49.104Z,53.63
2024-03-05T15:03:19.356Z,52.49
2024-03-05T15:05:46.810Z,50.54
2024-03-05T15:08:14.082Z,51.45
2024-03-05T15:10:40.919Z,53.00
2024-03-05T15:13:08.971Z,51.93
2024-03-05T15:15:35.713Z,55.66
2024-03-05T15:18:02.430Z,52.07
2024-03-05T15:20:29.128Z,52.44
2024-03-05T15:22:56.056Z,54.66
2024-03-05T15:25:23.764Z,55.36
2024-03-05T15:28:01.052Z,52.80
2024-03-05T15:30:33.188Z,56.29
2024-03-05T15:33:01.387Z,56.26
2024-03-05T15:35:30.022Z,55.20
2024-03-05T15:37:57.615Z,57.13
2024-03-05T15:40:24.667Z,55.05
2024-03-05T15:42:53.072Z,57.80
2024-03-05T15:45:26.352Z,54.69
2024-03-05T15:47:55.813Z,56.90
2024-03-05T15:50:24.181Z,57.25
2024-03-05T15:52:54.994Z,55.74
2024-03-05T15:55:26.049Z,56.11
2024-03-05T15:58:13.607Z,55.71
2024-03-05T16:00:40.246Z,59.39
2024-03-05T16:03:11.268Z,58.14
2024-03-05T16:05:47.263Z,58.51
2024-03-05T16:08:25.295Z,59.99
2024-03-05T16:10:53.248Z,60.88
2024-03-05T16:13:20.315Z,60.38
2024-03-05T16:15:48.242Z,58.94
2024-03-05T16:18:15.432Z,59.67
2024-03-05T16:20:42.411Z,59.63
2024-03-05T16:23:10.602Z,60.70
2024-03-05T16:25:40.512Z,59.60
2024-03-05T16:28:08.219Z,61.50
2024-03-05T16:30:35.613Z,60.27
2024-03-05T16:33:02.222Z,59.70
2024-03-05T16:35:33.822Z,58.29
2024-03-05T16:38:01.532Z,59.91
2024-03-05T16:40:28.387Z,59.81
2024-03-05T16:42:56.361Z,60.26
2024-03-05T16:45:24.392Z,56.76
2024-03-05T16:47:56.282Z,58.06
2024-03-05T16:50:27.004Z,57.63
2024-03-05T16:52:55.631Z,59.21
2024-03-05T16:55:25.263Z,58.51
2024-03-05T16:57:54.148Z,59.38
2024-03-05T17:00:24.442Z,60.56
2024-03-05T17:02:57.918Z,57.72
2024-03-05T17:05:25.260Z,56.24
2024-03-05T17:07:55.608Z,57.35
2024-03-05T17:10:28.131Z,57.25
2024-03-05T17:12:56.909Z,57.44
2024-03-05T17:15:45.276Z,59.57
2024-03-05T17:18:12.745Z,60.06
2024-03-05T17:20:39.605Z,61.60
2024-03-05T17:23:07.193Z,59.57
2024-03-05T17:25:38.691Z,61.12
2024-03-05T17:28:09.374Z,60.87
2024-03-05T17:30:36.089Z,60.53
2024-03-05T17:33:02.789Z,58.93
2024-03-05T17:35:29.591Z,57.46
2024-03-05T17:37:56.826Z,58.71
2024-03-05T17:40:23.475Z,59.60
2024-03-05T17:42:50.367Z,61.10
2024-03-05T17:45:17.625Z,59.77
2024-03-05T17:47:44.438Z,58.07
2024-03-05T17:50:17.420Z,62.29
2024-03-05T17:52:45.388Z,59.29
2024-03-05T17:55:19.279Z,59.62
2024-03-05T17:57:48.387Z,59.70
2024-03-05T18:00:27.472Z,58.61
2024-03-05T18:02:56.229Z,59.54
2024-03-05T18:05:25.279Z,58.72
2024-03-05T18:07:52.803Z,59.44
2024-03-05T18:10:20.918Z,59.81
2024-03-05T18:12:49.898Z,60.20
2024-03-05T18:15:20.631Z,59.99
2024-03-05T18:17:50.073Z,62.64
2024-03-05T18:20:20.392Z,62.71
2024-03-05T18:22:47.454Z,64.90
2024-03-05T18:25:21.552Z,59.81
2024-03-05T18:27:57.821Z,62.99
2024-03-05T18:30:36.965Z,58.29
2024-03-05T18:33:08.516Z,62.30
2024-03-05T18:35:36.620Z,58.94
2024-03-05T18:38:16.473Z,58.70
2024-03-05T18:40:51.423Z,58.68
2024-03-05T18:43:20.852Z,61.75
2024-03-05T18:45:47.808Z,59.98
2024-03-05T18:48:14.603Z,62.61
2024-03-05T18:50:41.459Z,66.08
2024-03-05T18:53:09.379Z,64.33
2024-03-05T18:55:37.614Z,63.74
2024-03-05T18:58:07.788Z,65.63
2024-03-05T19:00:35.104Z,65.21
2024-03-05T19:03:02.267Z,64.21
2024-03-05T19:05:29.112Z,61.99
2024-03-05T19:07:55.846Z,61.68
2024-03-05T19:10:22.466Z,62.84
2024-03-05T19:12:49.496Z,63.42
2024-03-05T19:15:18.656Z,61.45
2024-03-05T19:17:48.883Z,61.86
2024-03-05T19:20:16.327Z,62.67
2024-03-05T19:22:43.350Z,65.84
2024-03-05T19:25:12.818Z,63.44
2024-03-05T19:27:43.326Z,64.97
2024-03-05T19:30:18.157Z,62.12
2024-03-05T19:32:45.883Z,62.51
2024-03-05T19:35:15.194Z,63.75
2024-03-05T19:37:43.009Z,63.91
2024-03-05T19:40:18.029Z,66.94
2024-03-05T19:42:46.022Z,67.66
2024-03-05T19:45:13.437Z,65.27
2024-03-05T19:47:40.447Z,65.05
2024-03-05T19:50:07.683Z,67.25
2024-03-05T19:52:34.930Z,66.46
2024-03-05T19:55:02.078Z,67.28
2024-03-05T19:57:29.304Z,67.76
2024-03-05T19:59:58.803Z,67.24
2024-03-05T20:02:27.151Z,68.59
2024-03-05T20:04:54.024Z,70.56
2024-03-05T20:07:22.490Z,66.66
2024-03-05T20:09:49.862Z,67.69
2024-03-05T20:12:17.147Z,64.54
2024-03-05T20:14:44.148Z,69.46
2024-03-05T20:17:11.588Z,70.69
2024-03-05T20:19:40.762Z,68.75
2024-03-05T20:22:09.044Z,68.66
2024-03-05T20:24:36.498Z,70.43
2024-03-05T20:27:04.102Z,71.93
2024-03-05T20:29:32.178Z,68.56
2024-03-05T20:31:59.697Z,70.23
2024-03-05T20:34:28.092Z,72.26
2024-03-05T20:36:55.934Z,73.08
2024-03-05T20:39:23.568Z,71.14
2024-03-05T20:41:50.991Z,70.21
2024-03-05T20:44:18.690Z,71.84
2024-03-05T20:46:46.077Z,72.29
2024-03-05T20:49:16.300Z,71.61
2024-03-05T20:51:43.994Z,75.97
2024-03-05T20:54:11.257Z,73.07
2024-03-05T20:56:38.058Z,74.02
2024-03-05T20:59:04.918Z,73.85
2024-03-05T21:01:31.905Z,77.16
2024-03-05T21:04:00.218Z,77.46
2024-03-05T21:06:27.019Z,75.63
2024-03-05T21:08:53.924Z,78.73
2024-03-05T21:11:21.313Z,75.97
2024-03-05T21:13:48.347Z,73.79
2024-03-05T21:16:15.444Z,76.37
2024-03-05T21:18:42.355Z,74.35
2024-03-05T21:21:15.135Z,71.82
2024-03-05T21:23:43.042Z,73.14
2024-03-05T21:26:23.132Z,72.89
2024-03-05T21:28:57.181Z,76.24
2024-03-05T21:31:25.390Z,76.12
2024-03-05T21:33:52.138Z,76.77
2024-03-05T21:36:18.822Z,75.78
2024-03-05T21:38:45.669Z,76.13
2024-03-05T21:41:13.685Z,75.25
2024-03-05T21:43:41.202Z,75.12
2024-03-05T21:46:09.008Z,80.42
2024-03-05T21:48:35.627Z,84.08
2024-03-05T21:51:06.816Z,79.87
2024-03-05T21:53:39.073Z,84.00
2024-03-05T21:56:06.177Z,82.83
2024-03-05T21:58:32.924Z,78.09
2024-03-05T22:00:59.580Z,75.50
2024-03-05T22:03:26.266Z,79.68
2024-03-05T22:05:53.620Z,75.95
2024-03-05T22:08:21.321Z,77.20
2024-03-05T22:10:47.996Z,77.62
2024-03-05T22:13:14.611Z,76.91
2024-03-05T22:15:41.309Z,81.68
2024-03-05T22:18:08.447Z,79.62
2024-03-05T22:20:35.174Z,75.59
2024-03-05T22:23:03.136Z,76.28
2024-03-05T22:25:29.871Z,78.34
2024-03-05T22:27:56.672Z,75.16
2024-03-05T22:30:23.288Z,75.24
2024-03-05T22:32:50.209Z,77.46
2024-03-05T22:35:17.024Z,82.42
2024-03-05T22:37:43.811Z,81.79
2024-03-05T22:40:13.497Z,85.09
2024-03-05T22:42:40.310Z,83.09
2024-03-05T22:45:08.783Z,83.23
2024-03-05T22:47:35.593Z,79.09
2024-03-05T22:50:02.458Z,81.16
2024-03-05T22:52:29.407Z,83.09
2024-03-05T22:54:56.090Z,84.38
2024-03-05T22:57:25.421Z,85.01
2024-03-05T22:59:52.083Z,85.11
2024-03-05T23:02:19.653Z,82.81
2024-03-05T23:04:47.510Z,81.62
2024-03-05T23:07:17.153Z,83.98
2024-03-05T23:09:43.844Z,85.39
2024-03-05T23:12:15.899Z,84.64
2024-03-05T23:14:43.344Z,86.25
2024-03-05T23:17:13.630Z,81.80
2024-03-05T23:19:42.480Z,88.04
2024-03-05T23:22:09.290Z,86.08
2024-03-05T23:24:35.969Z,87.38
2024-03-05T23:27:02.724Z,85.86
2024-03-05T23:29:29.437Z,92.44
2024-03-05T23:31:56.194Z,85.78
2024-03-05T23:34:22.821Z,84.11
2024-03-05T23:36:49.474Z,83.16
2024-03-05T23:39:16.615Z,85.96
2024-03-05T23:41:45.386Z,85.66
2024-03-05T23:44:12.759Z,82.83
2024-03-05T23:46:39.676Z,86.07
2024-03-05T23:49:06.375Z,85.63
2024-03-05T23:51:33.055Z,86.43
2024-03-05T23:53:59.714Z,80.22
2024-03-05T23:56:26.341Z,80.60
2024-03-05T23:58:53.229Z,82.10
